createdAt,value
2023-01-03T00:00:21.831Z,67.40
2023-01-03T00:03:26.036Z,70.40
2023-01-03T00:06:31.002Z,67.53
2023-01-03T00:09:35.555Z,75.25
2023-01-03T00:12:39.317Z,65.85
2023-01-03T00:15:42.790Z,75.57
2023-01-03T00:18:46.449Z,77.95
2023-01-03T00:21:50.271Z,77.28
2023-01-03T00:24:55.120Z,73.53
2023-01-03T00:27:58.507Z,73.75
2023-01-03T00:31:07.808Z,76.38
2023-01-03T00:34:11.520Z,74.38
2023-01-03T00:37:15.599Z,76.25
2023-01-03T00:40:20.391Z,75.43
2023-01-03T00:43:32.398Z,72.63
2023-01-03T00:46:36.761Z,81.65
2023-01-03T00:49:40.059Z,79.50
2023-01-03T00:52:43.327Z,73.05
2023-01-03T00:55:48.473Z,76.82
2023-01-03T00:58:52.528Z,79.82
2023-01-03T01:01:57.736Z,75.80
2023-01-03T01:05:00.993Z,77.43
2023-01-03T01:08:04.785Z,78.35
2023-01-03T01:11:09.717Z,79.47
2023-01-03T01:14:20.830Z,81.88
2023-01-03T01:17:24.028Z,80.10
2023-01-03T01:20:27.199Z,82.78
2023-01-03T01:23:30.507Z,86.38
2023-01-03T01:26:35.088Z,89.97
2023-01-03T01:29:39.419Z,92.60
2023-01-03T01:32:42.569Z,98.75
2023-01-03T01:35:46.020Z,95.68
2023-01-03T01:38:53.996Z,91.68
2023-01-03T01:42:20.309Z,95.18
2023-01-03T01:45:24.562Z,93.78
2023-01-03T01:48:27.857Z,94.55
2023-01-03T01:51:34.286Z,89.28
2023-01-03T01:54:37.970Z,90.95
2023-01-03T01:57:44.012Z,87.57
2023-01-03T02:01:06.679Z,89.72
2023-01-03T02:04:15.743Z,87.07
2023-01-03T02:07:19.862Z,85.32
2023-01-03T02:10:33.762Z,86.72
2023-01-03T02:13:49.972Z,77.32
2023-01-03T02:17:01.510Z,79.60
2023-01-03T02:20:21.020Z,71.63
2023-01-03T02:24:01.968Z,53.10
2023-01-03T02:27:20.834Z,73.13
2023-01-03T02:30:38.836Z,62.38
2023-01-03T02:33:49.769Z,57.70
2023-01-03T02:37:02.802Z,48.88
2023-01-03T02:40:12.179Z,46.70
2023-01-03T02:43:21.711Z,41.72
2023-01-03T02:46:29.804Z,31.13
2023-01-03T02:49:36.526Z,39.33
2023-01-03T02:52:42.364Z,37.92
2023-01-03T02:55:46.099Z,35.63
2023-01-03T02:58:54.107Z,33.00
2023-01-03T03:01:59.890Z,34.53
2023-01-03T03:05:06.705Z,33.90
2023-01-03T03:08:09.956Z,27.00
2023-01-03T03:11:31.821Z,35.58
2023-01-03T03:14:38.327Z,28.88
2023-01-03T03:17:44.644Z,32.70
2023-01-03T03:21:05.601Z,28.85
2023-01-03T03:24:30.137Z,31.70
2023-01-03T03:27:51.912Z,28.65
2023-01-03T03:30:59.889Z,29.92
2023-01-03T03:34:10.175Z,31.20
2023-01-03T03:37:18.094Z,29.85
2023-01-03T03:40:40.188Z,31.30
2023-01-03T03:44:07.421Z,35.53
2023-01-03T03:47:18.129Z,35.88
2023-01-03T03:50:28.907Z,35.45
2023-01-03T03:53:35.660Z,36.08
2023-01-03T03:56:41.697Z,35.00
2023-01-03T03:59:50.067Z,39.50
2023-01-03T04:02:55.348Z,39.13
2023-01-03T04:06:09.815Z,40.85
2023-01-03T04:09:13.190Z,42.30
2023-01-03T04:12:16.381Z,38.35
2023-01-03T04:15:20.109Z,39.08
2023-01-03T04:18:23.299Z,34.08
2023-01-03T04:21:28.262Z,33.78
2023-01-03T04:24:31.399Z,34.85
2023-01-03T04:27:34.760Z,33.72
2023-01-03T04:30:38.404Z,34.90
2023-01-03T04:33:41.523Z,36.33
2023-01-03T04:36:46.181Z,31.75
2023-01-03T04:39:49.439Z,31.95
2023-01-03T04:43:16.728Z,32.25
2023-01-03T04:46:26.793Z,30.88
2023-01-03T04:49:37.687Z,27.35
2023-01-03T04:52:43.506Z,25.98
2023-01-03T04:55:48.749Z,25.30
2023-01-03T04:58:52.775Z,28.92
2023-01-03T05:01:56.137Z,28.92
2023-01-03T05:04:59.597Z,28.10
2023-01-03T05:08:07.259Z,29.67
2023-01-03T05:11:10.907Z,25.95
2023-01-03T05:14:16.591Z,30.77
2023-01-03T05:17:20.463Z,24.98
2023-01-03T05:20:42.622Z,30.23
2023-01-03T05:24:04.740Z,27.73
2023-01-03T05:27:08.016Z,30.58
2023-01-03T05:30:12.040Z,27.70
2023-01-03T05:33:15.527Z,31.73
2023-01-03T05:36:18.795Z,28.95
2023-01-03T05:39:23.352Z,30.65
2023-01-03T05:42:26.890Z,29.02
2023-01-03T05:45:30.108Z,31.80
2023-01-03T05:48:33.480Z,36.35
2023-01-03T05:51:37.072Z,30.83
2023-01-03T05:54:41.829Z,27.20
2023-01-03T05:57:47.059Z,26.42
2023-01-03T06:00:50.846Z,27.77
2023-01-03T06:03:54.462Z,27.67
2023-01-03T06:06:57.701Z,29.02
2023-01-03T06:10:02.466Z,24.45
2023-01-03T06:13:05.704Z,26.80
2023-01-03T06:16:28.349Z,24.52
2023-01-03T06:19:31.790Z,24.67
2023-01-03T06:22:35.367Z,25.48
2023-01-03T06:25:40.253Z,24.77
2023-01-03T06:28:52.900Z,26.80
2023-01-03T06:31:56.191Z,28.33
2023-01-03T06:35:01.583Z,26.95
2023-01-03T06:38:09.683Z,24.67
2023-01-03T06:41:15.555Z,24.30
2023-01-03T06:44:19.111Z,24.45
2023-01-03T06:47:39.640Z,24.17
2023-01-03T06:51:01.633Z,26.38
2023-01-03T06:54:04.954Z,26.08
2023-01-03T06:57:09.713Z,24.08
2023-01-03T07:00:29.450Z,24.20
2023-01-03T07:03:33.282Z,24.02
2023-01-03T07:06:36.488Z,23.55
2023-01-03T07:09:39.746Z,21.63
2023-01-03T07:13:01.587Z,22.45
2023-01-03T07:16:05.135Z,21.67
2023-01-03T07:19:12.091Z,22.75
2023-01-03T07:22:15.843Z,21.17
2023-01-03T07:25:19.213Z,21.75
2023-01-03T07:28:23.908Z,22.55
2023-01-03T07:31:28.662Z,22.70
2023-01-03T07:34:31.974Z,18.77
2023-01-03T07:37:35.263Z,18.95
2023-01-03T07:40:38.631Z,19.63
2023-01-03T07:43:44.621Z,19.08
2023-01-03T07:46:48.077Z,19.75
2023-01-03T07:49:51.569Z,17.42
2023-01-03T07:52:54.875Z,16.95
2023-01-03T07:56:09.122Z,16.25
2023-01-03T07:59:14.250Z,17.35
2023-01-03T08:02:19.348Z,19.70
2023-01-03T08:05:23.611Z,18.55
2023-01-03T08:08:26.843Z,19.48
2023-01-03T08:11:47.438Z,17.33
2023-01-03T08:14:52.171Z,14.93
2023-01-03T08:17:55.459Z,17.45
2023-01-03T08:20:58.707Z,16.90
2023-01-03T08:24:01.956Z,17.60
2023-01-03T08:27:05.437Z,15.02
2023-01-03T08:30:11.816Z,14.13
2023-01-03T08:33:17.322Z,14.70
2023-01-03T08:36:22.057Z,16.52
2023-01-03T08:39:28.824Z,15.00
2023-01-03T08:42:33.890Z,12.38
2023-01-03T08:45:39.589Z,11.48
2023-01-03T08:48:43.417Z,12.68
2023-01-03T08:51:46.798Z,9.98
2023-01-03T08:54:50.356Z,13.60
2023-01-03T08:57:53.882Z,10.27
2023-01-03T09:01:02.686Z,12.68
2023-01-03T09:04:06.264Z,12.88
2023-01-03T09:07:09.644Z,14.02
2023-01-03T09:10:13.556Z,9.85
2023-01-03T09:13:16.846Z,10.60
2023-01-03T09:16:21.458Z,11.70
2023-01-03T09:19:24.923Z,12.80
2023-01-03T09:22:28.322Z,10.98
2023-01-03T09:25:36.766Z,14.00
2023-01-03T09:28:40.565Z,14.35
2023-01-03T09:31:46.041Z,15.50
2023-01-03T09:34:49.342Z,13.75
2023-01-03T09:37:52.507Z,13.68
2023-01-03T09:41:01.765Z,17.10
2023-01-03T09:44:07.645Z,14.20
2023-01-03T09:47:20.255Z,21.13
2023-01-03T09:50:35.055Z,18.33
2023-01-03T09:54:04.646Z,19.70
2023-01-03T09:57:34.300Z,18.45
2023-01-03T10:01:00.623Z,16.95
2023-01-03T10:04:18.498Z,18.13
2023-01-03T10:07:33.757Z,15.07
2023-01-03T10:10:47.552Z,17.00
2023-01-03T10:14:07.729Z,17.58
2023-01-03T10:17:22.166Z,16.42
2023-01-03T10:20:40.697Z,16.50
2023-01-03T10:23:44.568Z,20.17
2023-01-03T10:26:50.953Z,16.85
2023-01-03T10:29:57.257Z,20.98
2023-01-03T10:33:18.996Z,16.25
2023-01-03T10:36:23.955Z,13.73
2023-01-03T10:39:32.544Z,19.20
2023-01-03T10:42:37.223Z,16.52
2023-01-03T10:45:56.569Z,16.02
2023-01-03T10:49:31.192Z,12.75
2023-01-03T10:52:40.514Z,14.07
2023-01-03T10:55:48.286Z,12.38
2023-01-03T10:59:11.607Z,12.77
2023-01-03T11:02:18.471Z,12.02
2023-01-03T11:05:24.150Z,14.45
2023-01-03T11:08:40.954Z,10.02
2023-01-03T11:11:44.466Z,8.43
2023-01-03T11:14:52.094Z,10.98
2023-01-03T11:17:56.523Z,8.07
2023-01-03T11:21:09.938Z,8.75
2023-01-03T11:24:28.133Z,8.93
2023-01-03T11:27:58.310Z,8.40
2023-01-03T11:31:08.356Z,7.63
2023-01-03T11:34:37.816Z,7.50
2023-01-03T11:37:59.300Z,7.40
2023-01-03T11:41:15.818Z,6.43
2023-01-03T11:44:44.848Z,9.32
2023-01-03T11:47:56.383Z,7.78
2023-01-03T11:51:08.452Z,6.70
2023-01-03T11:54:26.619Z,7.30
2023-01-03T11:57:41.825Z,5.53
2023-01-03T12:00:51.525Z,8.27
2023-01-03T12:04:09.735Z,8.02
2023-01-03T12:10:47.448Z,7.57
2023-01-03T12:14:00.874Z,10.52
2023-01-03T12:17:10.792Z,9.02
2023-01-03T12:20:20.957Z,11.52
2023-01-03T12:23:33.310Z,10.88
2023-01-03T12:26:38.456Z,8.48
2023-01-03T12:29:52.134Z,6.57
2023-01-03T12:32:58.238Z,7.63
2023-01-03T12:36:05.683Z,12.10
2023-01-03T12:39:33.576Z,9.02
2023-01-03T12:42:42.106Z,10.55
2023-01-03T12:45:53.743Z,10.18
2023-01-03T12:49:02.456Z,8.18
2023-01-03T12:52:06.778Z,7.13
2023-01-03T12:55:22.630Z,8.68
2023-01-03T12:58:39.965Z,7.63
2023-01-03T13:01:48.865Z,7.75
2023-01-03T13:04:56.205Z,8.18
2023-01-03T13:08:10.824Z,8.10
2023-01-03T13:11:21.152Z,7.95
2023-01-03T13:17:31.138Z,10.23
2023-01-03T13:20:36.783Z,11.38
2023-01-03T13:23:59.537Z,12.15
2023-01-03T13:27:35.193Z,13.80
2023-01-03T13:30:39.371Z,10.40
2023-01-03T13:33:55.784Z,13.93
2023-01-03T13:37:18.021Z,8.82
2023-01-03T13:41:07.515Z,6.80
2023-01-03T13:43:55.388Z,9.63
2023-01-03T13:46:59.413Z,9.73
2023-01-03T13:50:04.395Z,8.48
2023-01-03T13:53:31.313Z,14.48
2023-01-03T13:56:58.535Z,9.35
2023-01-03T14:00:09.638Z,11.00
2023-01-03T14:03:51.890Z,11.27
2023-01-03T14:07:11.803Z,12.83
2023-01-03T14:10:46.380Z,17.55
2023-01-03T14:13:51.028Z,17.83
2023-01-03T14:16:56.095Z,13.70
2023-01-03T14:20:06.065Z,16.25
2023-01-03T14:23:57.914Z,17.30
2023-01-03T14:26:38.140Z,13.02
2023-01-03T14:29:43.447Z,14.02
2023-01-03T14:32:47.651Z,14.23
2023-01-03T14:35:51.598Z,12.27
2023-01-03T14:38:58.238Z,13.18
2023-01-03T14:42:03.388Z,12.25
2023-01-03T14:45:08.928Z,17.67
2023-01-03T14:53:01.792Z,24.48
2023-01-03T14:56:07.586Z,23.98
2023-01-03T14:59:11.117Z,19.73
2023-01-03T15:02:15.251Z,19.77
2023-01-03T15:05:31.205Z,21.13
2023-01-03T15:08:43.477Z,26.77
2023-01-03T15:11:59.671Z,24.08
2023-01-03T15:15:20.969Z,25.40
2023-01-03T15:18:26.820Z,21.80
2023-01-03T15:21:31.377Z,18.15
2023-01-03T15:24:43.239Z,14.65
2023-01-03T15:27:50.204Z,16.45
2023-01-03T15:30:56.176Z,17.13
2023-01-03T15:34:04.660Z,21.95
2023-01-03T15:37:15.953Z,45.33
2023-01-03T15:40:19.967Z,23.38
2023-01-03T15:43:30.842Z,23.17
2023-01-03T15:46:34.475Z,21.58
2023-01-03T15:49:42.093Z,20.48
2023-01-03T15:52:45.987Z,28.25
2023-01-03T15:55:50.841Z,26.05
2023-01-03T15:58:59.094Z,24.60
2023-01-03T16:02:03.981Z,20.45
2023-01-03T16:05:08.608Z,20.80
2023-01-03T16:08:24.807Z,24.58
2023-01-03T16:11:34.118Z,23.50
2023-01-03T16:14:44.187Z,18.33
2023-01-03T16:17:47.783Z,23.55
2023-01-03T16:20:51.678Z,23.90
2023-01-03T16:23:55.239Z,23.17
2023-01-03T16:26:59.411Z,24.15
2023-01-03T16:30:04.814Z,21.77
2023-01-03T16:33:10.473Z,20.92
2023-01-03T16:36:26.764Z,22.83
2023-01-03T16:39:30.178Z,25.20
2023-01-03T16:42:33.556Z,22.52
2023-01-03T16:45:47.143Z,25.52
2023-01-03T16:48:53.656Z,31.00
2023-01-03T16:51:58.079Z,32.20
2023-01-03T16:55:05.688Z,45.40
2023-01-03T16:58:17.165Z,52.40
2023-01-03T17:01:22.875Z,53.65
2023-01-03T17:04:26.592Z,56.72
2023-01-03T17:07:30.485Z,39.67
2023-01-03T17:10:36.941Z,42.42
2023-01-03T17:13:43.118Z,42.60
2023-01-03T17:16:48.702Z,35.15
2023-01-03T17:20:07.498Z,30.80
2023-01-03T17:23:12.104Z,28.08
2023-01-03T17:26:18.125Z,28.85
2023-01-03T17:29:25.040Z,29.42
2023-01-03T17:32:30.447Z,33.90
2023-01-03T17:35:34.879Z,36.35
2023-01-03T17:38:38.603Z,37.75
2023-01-03T17:41:55.993Z,37.83
2023-01-03T17:45:16.522Z,30.10
2023-01-03T17:51:41.979Z,29.55
2023-01-03T17:54:45.469Z,29.98
2023-01-03T17:57:49.094Z,30.15
2023-01-03T18:00:52.769Z,28.15
2023-01-03T18:03:58.484Z,31.83
2023-01-03T18:07:02.399Z,44.00
2023-01-03T18:10:09.017Z,54.53
2023-01-03T18:13:22.245Z,72.00
2023-01-03T18:16:26.043Z,68.07
2023-01-03T18:19:31.077Z,45.47
2023-01-03T18:22:34.707Z,44.20
2023-01-03T18:25:38.072Z,41.45
2023-01-03T18:28:41.670Z,48.92
2023-01-03T18:31:45.856Z,51.53
2023-01-03T18:34:50.923Z,49.53
2023-01-03T18:37:55.895Z,43.97
2023-01-03T18:41:05.028Z,56.15
2023-01-03T18:44:23.234Z,54.22
2023-01-03T18:47:26.727Z,68.72
2023-01-03T18:50:31.768Z,79.70
2023-01-03T18:53:35.196Z,75.45
2023-01-03T18:56:43.679Z,57.00
2023-01-03T18:59:47.605Z,47.47
2023-01-03T19:02:52.326Z,46.33
2023-01-03T19:05:59.422Z,45.05
2023-01-03T19:09:06.449Z,45.78
2023-01-03T19:12:14.825Z,41.58
2023-01-03T19:15:23.002Z,45.00
2023-01-03T19:18:26.930Z,44.42
2023-01-03T19:21:34.908Z,47.03
2023-01-03T19:24:39.776Z,48.20
2023-01-03T19:27:47.907Z,41.88
2023-01-03T19:30:52.125Z,43.95
2023-01-03T19:33:56.508Z,59.15
2023-01-03T19:37:01.382Z,61.70
2023-01-03T19:40:05.432Z,58.83
2023-01-03T19:43:09.161Z,40.30
2023-01-03T19:46:16.914Z,39.88
2023-01-03T19:49:22.308Z,42.05
2023-01-03T19:52:27.478Z,38.88
2023-01-03T19:55:33.009Z,43.55
2023-01-03T19:58:42.988Z,57.78
2023-01-03T20:02:22.698Z,39.75
2023-01-03T20:05:17.791Z,42.17
2023-01-03T20:08:22.679Z,40.92
2023-01-03T20:11:26.225Z,40.88
2023-01-03T20:14:29.868Z,35.95
2023-01-03T20:17:36.406Z,36.42
2023-01-03T20:20:40.309Z,37.08
2023-01-03T20:23:49.072Z,38.20
2023-01-03T20:26:55.427Z,25.85
2023-01-03T20:30:00.200Z,31.77
2023-01-03T20:33:03.780Z,35.33
2023-01-03T20:36:18.051Z,30.90
2023-01-03T20:39:30.626Z,39.80
2023-01-03T20:42:34.471Z,30.98
2023-01-03T20:45:39.171Z,30.83
2023-01-03T20:48:42.800Z,33.92
2023-01-03T20:51:46.531Z,31.38
2023-01-03T20:54:52.600Z,29.80
2023-01-03T20:57:56.064Z,44.67
2023-01-03T21:01:05.016Z,43.42
2023-01-03T21:04:08.829Z,31.43
2023-01-03T21:07:26.771Z,44.75
2023-01-03T21:10:40.028Z,42.92
2023-01-03T21:13:43.824Z,42.33
2023-01-03T21:16:47.825Z,38.25
2023-01-03T21:19:51.182Z,39.33
2023-01-03T21:22:54.973Z,36.75
2023-01-03T21:25:59.842Z,38.00
2023-01-03T21:29:03.132Z,43.95
2023-01-03T21:32:06.898Z,36.58
2023-01-03T21:35:13.819Z,33.97
2023-01-03T21:38:17.357Z,35.33
2023-01-03T21:41:23.491Z,40.00
2023-01-03T21:44:27.063Z,43.00
2023-01-03T21:47:31.410Z,35.95
2023-01-03T21:50:38.400Z,49.33
2023-01-03T21:53:42.451Z,44.17
2023-01-03T21:56:47.444Z,35.28
2023-01-03T21:59:50.728Z,38.25
2023-01-03T22:03:11.258Z,37.33
2023-01-03T22:06:15.528Z,36.40
2023-01-03T22:09:36.295Z,37.50
2023-01-03T22:12:41.125Z,35.65
2023-01-03T22:15:44.499Z,41.78
2023-01-03T22:18:47.820Z,49.72
2023-01-03T22:21:51.086Z,42.67
2023-01-03T22:24:54.250Z,43.72
2023-01-03T22:27:58.884Z,45.28
2023-01-03T22:31:02.276Z,39.47
2023-01-03T22:34:05.555Z,42.08
2023-01-03T22:37:08.926Z,41.63
2023-01-03T22:40:14.799Z,39.50
2023-01-03T22:43:19.368Z,39.55
2023-01-03T22:46:22.667Z,41.83
2023-01-03T22:49:25.951Z,49.35
2023-01-03T22:52:29.166Z,45.38
2023-01-03T22:55:32.587Z,45.25
2023-01-03T22:58:38.042Z,45.42
2023-01-03T23:01:41.688Z,40.22
2023-01-03T23:04:45.045Z,38.95
2023-01-03T23:07:48.338Z,34.75
2023-01-03T23:11:11.779Z,40.38
2023-01-03T23:14:17.517Z,34.58
2023-01-03T23:17:37.911Z,38.85
2023-01-03T23:23:53.416Z,35.75
2023-01-03T23:26:56.581Z,35.88
2023-01-03T23:30:01.640Z,37.08
2023-01-03T23:33:05.049Z,37.20
2023-01-03T23:36:10.551Z,41.35
2023-01-03T23:39:14.797Z,35.17
2023-01-03T23:42:18.081Z,37.15
2023-01-03T23:45:22.963Z,39.03
2023-01-03T23:48:26.175Z,41.50
2023-01-03T23:51:29.349Z,43.75
2023-01-03T23:54:32.541Z,40.88
2023-01-03T23:57:35.742Z,44.55
